Quick Links (Output Below):   Max & Min Temps   /   Climate Reports   /   Zone Forecasts
River Forecasts   /   Forestry Forecasts   /   Aviation Forecasts   /   Radars   /   Features

Terminal Aerodrome Forecast (Fort Smith)

Pick a Site:
Arkadelphia | El Dorado | Fayetteville | Fort Smith | Harrison | Highfill | Hot Springs | Jonesboro
Little Rock | Monticello | Mountain Home | Pine Bluff | Texarkana
 Forecast 

KFSM 270520Z 2706/2806 VRB03KT P6SM SKC=


 Latest METARs (Observations) 
How to Decode METARs
09Z KFSM 270853Z AUTO 00000KT 10SM CLR 04/01 A3005 RMK AO2 SLP176
         T00390006 53005
         
08Z KFSM 270753Z AUTO 20003KT 10SM CLR 07/02 A3004 RMK AO2 SLP173
         T00670017
         
07Z KFSM 270653Z AUTO 24006KT 10SM CLR 07/02 A3003 RMK AO2 SLP170
         T00670017
         
06Z KFSM 270553Z AUTO 00000KT 10SM CLR 07/02 A3004 RMK AO2 SLP171
         T00720017 10144 20056 401671006 53006
         
05Z KFSM 270453Z AUTO 22003KT 10SM CLR 08/02 A3002 RMK AO2 SLP166
         T00780017
         
04Z KFSM 270353Z 00000KT 10SM CLR 07/02 A3001 RMK AO2 SLP165
         T00720022
         
03Z KFSM 270253Z 00000KT 10SM CLR 07/02 A3002 RMK AO2 SLP167 T00720017
         51006
         
02Z KFSM 270153Z 00000KT 10SM CLR 08/02 A3001 RMK AO2 SLP166
         T00830022
         
01Z KFSM 270053Z 00000KT 10SM CLR 11/02 A3001 RMK AO2 SLP164
         T01110017
         
00Z KFSM 262353Z 31005KT 10SM CLR 13/01 A3000 RMK AO2 SLP160 T01330011
         10167 20100 55002
         
***** Today's Observations (Above) *****


Back to Main Page
http://www.srh.noaa.gov/lzk/qfcst.php

USA.gov is the U.S. government's official web portal to all federal, state and local government web resources and services.